Time;durP1;ratioP1;P1;durP2;ratioP2;P2;SDS_P1;SDS_P2;PMS_P1;PMS_P2;Temp;Humidity;BMP_temperature;BMP_pressure;BME280_temperature;BME280_humidity;BME280_pressure;Samples;Min_cycle;Max_cycle;Signal;HPM_P1;HPM_P2
2024/03/11 00:01:53;;;;;;;27.40;15.73;;;;;;;10.74;57.88;94917.50;5133081;27;20084;-85
2024/03/11 00:04:19;;;;;;;26.13;16.50;;;;;;;10.75;57.99;94910.00;5132623;27;20098;-84
2024/03/11 00:06:45;;;;;;;24.70;16.92;;;;;;;10.68;57.97;94902.75;5110844;27;20114;-81
2024/03/11 00:09:28;;;;;;;23.10;16.00;;;;;;;10.79;57.91;94905.94;5129417;27;20015;-83
2024/03/11 00:11:58;;;;;;;23.45;15.00;;;;;;;10.67;58.15;94906.72;5114468;27;20131;-84
2024/03/11 00:14:32;;;;;;;27.33;15.85;;;;;;;10.56;58.26;94907.03;5118879;27;20027;-82
2024/03/11 00:16:58;;;;;;;26.95;16.80;;;;;;;10.55;58.44;94923.94;5154137;27;20029;-85
2024/03/11 00:19:25;;;;;;;25.60;15.98;;;;;;;10.55;58.49;94927.47;5139571;27;20055;-84
2024/03/11 00:21:58;;;;;;;25.67;15.35;;;;;;;10.45;58.78;94909.31;5130374;27;20027;-84
2024/03/11 00:24:24;;;;;;;27.37;16.10;;;;;;;10.43;59.02;94903.47;5128805;27;20481;-82
2024/03/11 00:26:50;;;;;;;25.80;16.70;;;;;;;10.36;59.01;94896.19;5128651;27;20313;-83
2024/03/11 00:29:16;;;;;;;27.30;16.52;;;;;;;10.38;59.02;94893.03;5110671;27;20079;-83
2024/03/11 00:31:42;;;;;;;25.63;16.42;;;;;;;10.45;58.76;94884.56;5109464;27;20058;-82
2024/03/11 00:34:08;;;;;;;24.02;15.48;;;;;;;10.45;59.00;94875.56;5129609;27;20047;-83
2024/03/11 00:36:34;;;;;;;26.90;16.80;;;;;;;10.44;58.96;94874.78;5127931;27;20027;-83
2024/03/11 00:39:01;;;;;;;28.13;16.08;;;;;;;10.40;59.25;94882.38;5110277;27;20040;-84
2024/03/11 00:41:27;;;;;;;25.75;15.63;;;;;;;10.41;59.00;94883.13;5128310;27;20039;-83
2024/03/11 00:43:52;;;;;;;25.33;16.30;;;;;;;10.41;58.89;94872.91;5128203;27;20033;-83
2024/03/11 00:46:18;;;;;;;28.35;16.35;;;;;;;10.45;59.09;94883.81;5110211;27;20512;-84
2024/03/11 00:48:44;;;;;;;28.10;16.83;;;;;;;10.45;59.13;94884.56;5128110;27;20030;-84
2024/03/11 00:51:10;;;;;;;28.17;16.15;;;;;;;10.49;59.21;94884.47;5129108;27;20122;-83
2024/03/11 00:53:36;;;;;;;24.85;15.20;;;;;;;10.47;59.22;94890.41;5109338;27;20492;-84
2024/03/11 00:56:02;;;;;;;30.13;17.05;;;;;;;10.53;59.09;94898.88;5110173;27;20499;-84
2024/03/11 00:58:31;;;;;;;24.73;16.90;;;;;;;10.52;59.14;94894.59;5128453;27;20027;-84
2024/03/11 01:00:57;;;;;;;24.90;15.65;;;;;;;10.46;59.21;94894.34;5109696;27;20031;-84
2024/03/11 01:03:22;;;;;;;24.10;15.85;;;;;;;10.50;59.22;94880.53;5108987;27;20054;-82
2024/03/11 01:05:49;;;;;;;24.17;15.95;;;;;;;10.49;59.41;94873.47;5127565;27;20064;-83
2024/03/11 01:08:16;;;;;;;25.05;15.00;;;;;;;10.50;59.29;94867.53;5110087;27;20023;-82
2024/03/11 01:10:42;;;;;;;25.63;15.85;;;;;;;10.48;59.30;94853.47;5127360;27;20043;-83
2024/03/11 01:13:07;;;;;;;23.98;14.93;;;;;;;10.53;59.26;94843.91;5110032;27;20081;-84
2024/03/11 01:15:33;;;;;;;24.27;15.50;;;;;;;10.44;59.62;94847.31;5109033;27;20138;-84
2024/03/11 01:17:58;;;;;;;23.02;15.00;;;;;;;10.41;59.66;94853.66;5127882;27;20410;-83
2024/03/11 01:20:24;;;;;;;23.88;15.40;;;;;;;10.41;59.51;94861.16;5127629;27;20496;-84
2024/03/11 01:22:51;;;;;;;22.77;14.20;;;;;;;10.42;59.56;94857.19;5108923;27;20027;-85
2024/03/11 01:25:20;;;;;;;22.77;14.55;;;;;;;10.45;59.44;94870.84;5128757;27;20019;-82
2024/03/11 01:27:45;;;;;;;24.45;15.65;;;;;;;10.40;59.52;94889.84;5136909;27;20048;-83
2024/03/11 01:30:11;;;;;;;24.60;16.25;;;;;;;10.42;59.59;94895.66;5143049;27;20455;-82
2024/03/11 01:32:38;;;;;;;24.92;15.98;;;;;;;10.48;59.34;94897.44;5127597;27;20027;-84
2024/03/11 01:35:04;;;;;;;23.05;14.75;;;;;;;10.47;59.46;94917.13;5127907;27;20509;-84
2024/03/11 01:37:29;;;;;;;22.17;14.48;;;;;;;10.46;59.63;94897.09;5109142;27;20011;-83
2024/03/11 01:39:55;;;;;;;20.13;15.07;;;;;;;10.43;59.78;94889.72;5127290;27;20479;-83
2024/03/11 01:42:21;;;;;;;26.25;15.25;;;;;;;10.39;59.82;94897.31;5109343;27;20020;-83
2024/03/11 01:44:50;;;;;;;26.80;15.88;;;;;;;10.48;59.68;94902.94;5126786;27;20027;-83
2024/03/11 01:47:17;;;;;;;24.17;15.38;;;;;;;10.51;59.62;94896.56;5110328;27;20046;-82
2024/03/11 01:49:44;;;;;;;26.05;16.48;;;;;;;10.49;59.50;94903.69;5109799;27;20232;-83
2024/03/11 01:52:16;;;;;;;25.95;16.33;;;;;;;10.52;59.34;94911.84;5129356;27;20023;-84
2024/03/11 01:54:42;;;;;;;27.67;16.73;;;;;;;10.49;59.47;94907.22;5110321;27;20023;-83
2024/03/11 01:57:10;;;;;;;28.10;17.48;;;;;;;10.32;59.49;94861.78;5109625;27;20110;-82
2024/03/11 01:59:37;;;;;;;27.60;17.55;;;;;;;10.54;59.60;94892.16;5109075;27;20041;-82
2024/03/11 02:02:03;;;;;;;28.73;17.08;;;;;;;10.45;59.69;94890.06;5126320;27;20393;-85
2024/03/11 02:04:30;;;;;;;26.65;16.67;;;;;;;10.40;59.88;94881.59;5127401;27;20027;-82
2024/03/11 02:06:55;;;;;;;26.00;16.58;;;;;;;10.41;59.86;94870.16;5126804;27;20034;-82
2024/03/11 02:09:21;;;;;;;26.10;16.17;;;;;;;10.38;59.88;94857.31;5126620;27;20027;-82
2024/03/11 02:11:47;;;;;;;28.27;17.33;;;;;;;10.36;60.07;94856.97;5126560;27;20445;-84
2024/03/11 02:14:13;;;;;;;26.30;16.25;;;;;;;10.40;60.01;94881.59;5126528;27;20023;-84
2024/03/11 02:16:39;;;;;;;25.90;16.42;;;;;;;10.37;60.15;94880.47;5126882;27;20061;-84
2024/03/11 02:19:06;;;;;;;27.38;15.98;;;;;;;10.36;60.14;94843.97;5126534;27;20027;-84
2024/03/11 02:21:32;;;;;;;25.02;16.25;;;;;;;10.41;60.10;94863.91;5127475;27;20039;-84
2024/03/11 02:23:58;;;;;;;25.30;17.23;;;;;;;10.37;60.16;94866.75;5126048;27;20481;-83
2024/03/11 02:26:24;;;;;;;25.67;16.15;;;;;;;10.31;60.32;94852.00;5126583;27;20023;-83
2024/03/11 02:28:49;;;;;;;26.73;16.17;;;;;;;10.30;60.37;94836.72;5126117;27;20027;-83
2024/03/11 02:31:14;;;;;;;25.73;16.25;;;;;;;10.30;60.35;94818.25;5126680;27;20019;-83
2024/03/11 02:33:40;;;;;;;25.48;15.85;;;;;;;10.36;60.32;94827.50;5107674;27;20027;-83
2024/03/11 02:36:05;;;;;;;23.63;15.10;;;;;;;10.23;60.71;94810.22;5125930;27;20027;-81
2024/03/11 02:38:31;;;;;;;23.65;16.02;;;;;;;10.25;60.69;94802.31;5113474;27;20016;-83
2024/03/11 02:40:57;;;;;;;24.35;15.80;;;;;;;10.28;60.70;94806.94;5144217;27;20389;-83
2024/03/11 02:43:23;;;;;;;26.42;15.20;;;;;;;10.26;60.96;94792.88;5126573;27;20026;-83
2024/03/11 02:45:48;;;;;;;21.23;14.57;;;;;;;10.30;60.65;94798.25;5107949;27;20023;-84
2024/03/11 02:48:13;;;;;;;22.35;14.50;;;;;;;10.28;60.87;94811.69;5126400;27;20114;-84
2024/03/11 02:50:39;;;;;;;22.08;14.15;;;;;;;10.23;60.97;94814.94;5107711;27;20401;-84
2024/03/11 02:53:08;;;;;;;23.10;14.52;;;;;;;10.22;61.03;94799.66;5126108;27;20671;-84
2024/03/11 02:55:34;;;;;;;19.85;13.30;;;;;;;10.34;60.75;94810.69;5126211;27;20032;-84
2024/03/11 02:58:00;;;;;;;21.92;14.02;;;;;;;10.34;60.91;94816.19;5107433;27;20114;-83
2024/03/11 03:00:26;;;;;;;21.88;14.43;;;;;;;10.24;61.11;94822.00;5108226;27;20106;-85
2024/03/11 03:02:52;;;;;;;20.25;13.18;;;;;;;10.13;61.41;94849.75;5125572;27;20027;-86
2024/03/11 03:05:17;;;;;;;22.70;13.95;;;;;;;9.97;61.66;94836.84;5126131;27;20346;-83
2024/03/11 03:07:43;;;;;;;25.08;13.15;;;;;;;10.00;61.61;94832.47;5125638;27;20336;-83
2024/03/11 03:10:10;;;;;;;22.02;13.60;;;;;;;10.05;61.77;94842.91;5107199;27;20039;-84
2024/03/11 03:12:35;;;;;;;23.98;14.45;;;;;;;10.03;61.52;94839.81;5125482;27;20504;-84
2024/03/11 03:15:05;;;;;;;20.63;13.00;;;;;;;10.06;61.46;94849.94;5125475;27;20065;-83
2024/03/11 03:17:31;;;;;;;23.02;14.52;;;;;;;10.07;61.61;94862.47;5090736;27;20095;-84
2024/03/11 03:19:56;;;;;;;24.88;14.50;;;;;;;10.14;61.62;94858.75;5128211;27;20454;-85
2024/03/11 03:22:21;;;;;;;23.30;15.57;;;;;;;10.14;61.44;94840.28;5127295;28;20062;-84
2024/03/11 03:24:47;;;;;;;23.10;14.88;;;;;;;10.15;61.54;94832.81;5125830;27;20027;-83
2024/03/11 03:27:12;;;;;;;26.77;15.82;;;;;;;10.14;61.41;94831.28;5125547;28;20111;-83
2024/03/11 03:29:40;;;;;;;23.02;14.75;;;;;;;10.14;61.47;94851.28;5107034;28;20052;-83
2024/03/11 03:32:09;;;;;;;23.88;14.75;;;;;;;10.08;61.61;94839.28;5125413;28;20055;-84
2024/03/11 03:34:34;;;;;;;23.05;14.52;;;;;;;10.13;61.51;94840.72;5107983;28;20095;-84
2024/03/11 03:36:59;;;;;;;24.15;13.13;;;;;;;10.13;61.41;94822.28;5126620;28;20121;-84
2024/03/11 03:39:25;;;;;;;21.52;13.80;;;;;;;10.14;61.65;94812.81;5140105;28;20083;-83
2024/03/11 03:41:50;;;;;;;23.65;14.10;;;;;;;10.06;61.76;94789.53;5141028;28;20404;-84
2024/03/11 03:44:15;;;;;;;24.17;14.32;;;;;;;10.16;61.76;94821.41;5127707;28;20080;-83
2024/03/11 03:46:41;;;;;;;22.63;14.07;;;;;;;10.12;61.66;94823.47;5107620;28;20398;-83
2024/03/11 03:49:07;;;;;;;25.83;14.90;;;;;;;10.08;61.78;94807.09;5091105;28;20376;-83
2024/03/11 03:51:33;;;;;;;24.10;14.52;;;;;;;9.99;62.13;94795.22;5147766;27;20405;-83
2024/03/11 03:53:58;;;;;;;24.55;15.23;;;;;;;9.93;62.14;94796.97;5125630;28;20027;-85
2024/03/11 03:56:25;;;;;;;24.45;15.15;;;;;;;9.96;62.28;94829.03;5107402;28;20106;-85
2024/03/11 03:58:52;;;;;;;23.00;15.02;;;;;;;9.88;62.63;94844.94;5106769;28;20424;-85
2024/03/11 04:01:17;;;;;;;28.95;17.23;;;;;;;9.79;62.56;94822.84;5125222;28;20111;-86
2024/03/11 04:03:43;;;;;;;23.05;14.93;;;;;;;9.77;62.59;94826.03;5125807;28;20107;-84
2024/03/11 04:06:09;;;;;;;25.33;15.85;;;;;;;9.79;62.65;94831.06;5106608;28;20023;-85
2024/03/11 04:08:34;;;;;;;24.55;15.73;;;;;;;9.79;62.64;94814.59;5125377;28;20499;-85
2024/03/11 04:11:00;;;;;;;26.65;17.70;;;;;;;9.84;62.59;94828.56;5124802;28;20043;-84
2024/03/11 04:13:27;;;;;;;27.40;17.00;;;;;;;9.73;62.81;94835.56;5125942;28;20027;-85
2024/03/11 04:15:54;;;;;;;31.83;18.58;;;;;;;9.74;62.87;94829.63;5089913;28;20027;-84
2024/03/11 04:18:20;;;;;;;27.65;18.23;;;;;;;9.78;62.80;94832.28;5107301;28;20409;-85
2024/03/11 04:20:47;;;;;;;26.73;16.55;;;;;;;9.78;62.72;94826.78;5125261;28;20138;-84
2024/03/11 04:23:13;;;;;;;27.08;16.88;;;;;;;9.83;62.48;94829.78;5129361;28;20031;-84
2024/03/11 04:25:38;;;;;;;26.58;16.20;;;;;;;9.80;62.71;94807.91;5093639;28;20021;-85
2024/03/11 04:28:08;;;;;;;29.52;16.70;;;;;;;9.83;62.77;94807.81;5129983;28;20031;-84
2024/03/11 04:30:36;;;;;;;22.65;15.25;;;;;;;9.80;62.70;94802.41;5127227;28;20031;-83
2024/03/11 04:33:02;;;;;;;21.80;15.68;;;;;;;9.93;62.58;94807.97;5125832;28;20019;-85
2024/03/11 04:35:33;;;;;;;25.70;16.33;;;;;;;9.93;62.48;94807.97;5126184;27;20072;-86
2024/03/11 04:38:06;;;;;;;27.80;16.73;;;;;;;9.90;62.67;94806.06;5109689;27;20068;-85
2024/03/11 04:40:33;;;;;;;26.48;16.00;;;;;;;9.90;62.41;94804.09;5093127;27;20023;-82
2024/03/11 04:42:59;;;;;;;25.63;15.07;;;;;;;9.88;62.85;94803.00;5109650;27;20412;-82
2024/03/11 04:45:26;;;;;;;26.75;14.68;;;;;;;9.83;62.60;94804.28;5127808;27;20083;-82
2024/03/11 04:47:54;;;;;;;28.98;15.32;;;;;;;9.92;62.48;94807.19;5128815;27;20059;-82
2024/03/11 04:50:25;;;;;;;24.92;15.32;;;;;;;9.89;62.46;94805.31;5127640;27;20244;-83
2024/03/11 04:52:56;;;;;;;22.92;14.65;;;;;;;9.88;62.42;94805.75;5109842;27;20023;-83
2024/03/11 04:55:23;;;;;;;25.83;14.80;;;;;;;9.95;62.47;94803.56;5127777;27;20027;-82
2024/03/11 04:57:48;;;;;;;23.50;14.30;;;;;;;9.93;62.40;94813.44;5127913;27;20054;-81
2024/03/11 05:00:14;;;;;;;22.73;14.40;;;;;;;9.90;62.33;94800.56;5111821;27;20019;-80
2024/03/11 05:02:40;;;;;;;26.77;15.52;;;;;;;9.97;62.36;94798.38;5127776;27;20034;-81
2024/03/11 05:05:10;;;;;;;22.10;14.55;;;;;;;9.99;62.12;94806.22;5128602;27;20019;-81
2024/03/11 05:07:38;;;;;;;23.00;13.45;;;;;;;10.00;62.14;94816.75;5109421;27;20433;-81
2024/03/11 05:10:05;;;;;;;22.67;14.07;;;;;;;9.99;62.27;94823.47;5109296;27;20050;-80
2024/03/11 05:12:31;;;;;;;21.25;13.77;;;;;;;9.99;62.20;94836.41;5108990;27;20110;-79
2024/03/11 05:14:57;;;;;;;24.80;14.13;;;;;;;9.93;62.42;94846.41;5127782;27;20107;-80
2024/03/11 05:17:22;;;;;;;20.00;13.25;;;;;;;9.95;62.63;94853.00;5109063;27;20027;-81
2024/03/11 05:19:48;;;;;;;24.40;14.18;;;;;;;9.99;62.21;94841.91;5127654;27;20088;-81
2024/03/11 05:22:13;;;;;;;22.02;13.65;;;;;;;10.01;62.47;94832.03;5128103;27;20039;-81
2024/03/11 05:24:39;;;;;;;20.25;13.38;;;;;;;10.00;62.38;94816.75;5108583;27;20351;-82
2024/03/11 05:27:08;;;;;;;24.95;15.10;;;;;;;9.97;62.48;94808.59;5109387;27;20019;-81
2024/03/11 05:29:34;;;;;;;21.33;13.93;;;;;;;10.02;62.55;94821.81;5127365;27;20027;-80
2024/03/11 05:32:00;;;;;;;23.67;14.25;;;;;;;10.04;62.49;94820.19;5127339;27;20015;-82
2024/03/11 05:34:25;;;;;;;22.27;13.73;;;;;;;10.06;62.34;94817.00;5127564;27;20026;-80
2024/03/11 05:36:51;;;;;;;25.02;15.65;;;;;;;10.01;62.79;94812.78;5127045;27;20037;-80
2024/03/11 05:39:17;;;;;;;24.00;14.43;;;;;;;10.06;62.49;94830.72;5127530;27;20028;-81
2024/03/11 05:41:43;;;;;;;27.73;15.35;;;;;;;10.10;62.31;94834.16;5126933;27;20027;-81
2024/03/11 05:44:09;;;;;;;21.02;13.02;;;;;;;10.04;62.25;94830.41;5127696;27;20461;-81
2024/03/11 05:46:34;;;;;;;21.02;12.93;;;;;;;10.07;62.20;94826.75;5126866;27;20031;-81
2024/03/11 05:49:00;;;;;;;20.20;13.65;;;;;;;10.05;62.19;94818.19;5126390;27;20019;-81
2024/03/11 05:51:28;;;;;;;22.90;13.35;;;;;;;10.08;62.32;94825.56;5127080;27;20031;-80
2024/03/11 05:53:56;;;;;;;18.15;11.85;;;;;;;10.09;62.28;94829.84;5126846;27;20023;-81
2024/03/11 05:56:22;;;;;;;19.98;11.98;;;;;;;10.06;62.53;94833.47;5127436;27;20472;-80
2024/03/11 05:58:51;;;;;;;22.90;12.63;;;;;;;9.98;62.48;94832.91;5126727;27;20031;-79
2024/03/11 06:01:16;;;;;;;18.83;11.80;;;;;;;10.00;62.88;94835.22;5126964;27;20038;-81
2024/03/11 06:03:42;;;;;;;19.45;11.60;;;;;;;9.97;63.01;94839.59;5126337;27;20517;-80
2024/03/11 06:06:08;;;;;;;18.17;11.98;;;;;;;9.95;63.20;94828.28;5126410;27;20031;-79
2024/03/11 06:08:34;;;;;;;16.23;11.40;;;;;;;10.05;62.93;94842.91;5108012;27;20060;-80
2024/03/11 06:11:00;;;;;;;20.60;12.80;;;;;;;10.08;63.02;94839.28;5113108;27;20585;-81
2024/03/11 06:13:26;;;;;;;20.05;12.38;;;;;;;10.11;62.92;94838.44;5125001;27;20035;-80
2024/03/11 06:15:53;;;;;;;21.42;11.98;;;;;;;10.11;62.69;94838.44;5108008;27;20042;-81
2024/03/11 06:18:18;;;;;;;19.42;12.15;;;;;;;10.22;62.67;94840.88;5108838;27;20034;-80
2024/03/11 06:20:43;;;;;;;19.95;12.85;;;;;;;10.19;62.51;94826.00;5126028;27;20405;-81
2024/03/11 06:23:09;;;;;;;20.50;12.48;;;;;;;10.14;62.68;94847.75;5107795;27;20110;-80
2024/03/11 06:25:34;;;;;;;22.63;12.68;;;;;;;10.22;62.67;94835.38;5126141;27;20480;-81
2024/03/11 06:28:00;;;;;;;20.70;13.07;;;;;;;10.36;62.26;94852.22;5126058;27;20034;-80
2024/03/11 06:30:25;;;;;;;19.08;12.40;;;;;;;10.36;62.15;94854.22;5126371;27;20554;-80
2024/03/11 06:32:51;;;;;;;26.48;12.65;;;;;;;10.35;62.29;94839.69;5125517;27;20045;-80
2024/03/11 06:35:17;;;;;;;24.13;13.32;;;;;;;10.37;62.43;94847.50;5127111;27;20051;-80
2024/03/11 06:37:43;;;;;;;21.83;13.07;;;;;;;10.48;62.24;94844.44;5126121;27;20018;-81
2024/03/11 06:40:10;;;;;;;20.33;12.40;;;;;;;10.58;62.08;94846.09;5108260;27;20022;-80
2024/03/11 06:42:36;;;;;;;19.42;12.25;;;;;;;10.61;61.75;94851.50;5107437;27;20054;-79
2024/03/11 06:45:02;;;;;;;19.60;12.95;;;;;;;10.68;61.15;94860.75;5125953;27;20498;-79
2024/03/11 06:47:27;;;;;;;20.75;12.93;;;;;;;10.72;60.93;94864.13;5107612;27;20130;-80
2024/03/11 06:49:53;;;;;;;17.88;11.77;;;;;;;10.73;61.02;94852.72;5125459;27;20107;-80
2024/03/11 06:52:18;;;;;;;20.70;12.75;;;;;;;10.71;60.66;94866.13;5107733;27;20030;-80
2024/03/11 06:54:44;;;;;;;25.35;13.65;;;;;;;10.78;60.29;94860.41;5125353;27;20112;-81
2024/03/11 06:57:10;;;;;;;20.77;12.85;;;;;;;10.80;60.12;94849.75;5125985;27;20030;-80
2024/03/11 06:59:35;;;;;;;19.80;12.30;;;;;;;10.87;59.46;94860.50;5125185;27;20023;-82
2024/03/11 07:02:01;;;;;;;22.88;13.05;;;;;;;10.98;59.45;94856.66;5127485;27;20102;-82
2024/03/11 07:04:26;;;;;;;26.15;12.98;;;;;;;11.09;59.41;94862.59;5118722;27;20020;-80
2024/03/11 07:06:52;;;;;;;21.77;13.63;;;;;;;11.24;59.38;94855.44;5115249;27;20019;-79
2024/03/11 07:09:18;;;;;;;24.55;13.00;;;;;;;11.40;58.92;94869.03;5126823;27;20019;-81
2024/03/11 07:11:44;;;;;;;19.10;12.70;;;;;;;11.57;57.88;94853.13;5125858;27;20039;-80
2024/03/11 07:14:13;;;;;;;20.30;12.95;;;;;;;11.60;57.87;94868.78;5126113;27;20381;-81
2024/03/11 07:16:44;;;;;;;18.60;12.48;;;;;;;11.70;57.85;94862.16;5125313;27;20102;-80
2024/03/11 07:19:10;;;;;;;19.40;12.73;;;;;;;11.71;57.28;94862.91;5126165;27;20031;-80
2024/03/11 07:21:37;;;;;;;18.92;12.10;;;;;;;11.91;57.33;94871.66;5125437;27;20561;-81
2024/03/11 07:24:03;;;;;;;18.10;10.82;;;;;;;11.99;56.88;94872.19;5121643;28;20039;-80
2024/03/11 07:26:29;;;;;;;16.55;12.07;;;;;;;12.04;56.64;94868.84;5128429;28;20019;-80
2024/03/11 07:28:55;;;;;;;17.33;11.52;;;;;;;11.88;57.03;94872.56;5124705;28;20400;-81
2024/03/11 07:31:20;;;;;;;17.95;10.75;;;;;;;12.00;56.99;94878.47;5126009;28;20106;-80
2024/03/11 07:33:49;;;;;;;17.42;11.05;;;;;;;12.10;56.77;94872.59;5124642;28;20029;-80
2024/03/11 07:36:16;;;;;;;17.17;11.68;;;;;;;12.15;56.82;94869.22;5125907;28;20039;-80
2024/03/11 07:38:42;;;;;;;25.10;11.13;;;;;;;12.27;56.41;94870.38;5106520;28;20023;-79
2024/03/11 07:41:08;;;;;;;15.35;10.80;;;;;;;12.43;56.03;94878.47;5089535;28;20054;-80
2024/03/11 07:43:34;;;;;;;16.42;11.50;;;;;;;12.46;56.02;94865.78;5089949;28;20107;-80
2024/03/11 07:46:03;;;;;;;15.88;10.13;;;;;;;12.49;55.63;94864.88;5106713;28;20076;-84
2024/03/11 07:48:29;;;;;;;16.70;9.65;;;;;;;12.53;55.47;94870.25;5126434;28;20110;-86
2024/03/11 07:50:55;;;;;;;15.52;10.27;;;;;;;12.52;55.36;94868.72;5125339;28;20031;-87
2024/03/11 07:53:20;;;;;;;18.42;11.32;;;;;;;12.59;55.52;94873.97;5126025;28;20027;-86
2024/03/11 07:55:47;;;;;;;19.55;11.57;;;;;;;12.66;54.96;94873.69;5106819;28;20036;-85
2024/03/11 07:58:14;;;;;;;16.52;9.93;;;;;;;12.43;55.21;94885.97;5125810;28;20476;-84
2024/03/11 08:00:39;;;;;;;20.23;10.50;;;;;;;12.57;55.11;94892.97;5125401;28;20449;-85
2024/03/11 08:03:05;;;;;;;17.77;10.98;;;;;;;12.54;55.51;94899.34;5125211;28;20437;-86
2024/03/11 08:05:30;;;;;;;16.42;9.98;;;;;;;12.56;54.87;94880.38;5091068;28;20030;-85
2024/03/11 08:07:59;;;;;;;14.85;9.68;;;;;;;12.63;54.88;94883.66;5106159;28;20027;-85
2024/03/11 08:10:25;;;;;;;19.65;10.57;;;;;;;12.69;54.89;94895.63;5125855;27;20047;-86
2024/03/11 08:12:51;;;;;;;19.25;10.75;;;;;;;12.80;54.91;94909.03;5128960;27;20024;-85
2024/03/11 08:15:17;;;;;;;16.27;9.95;;;;;;;12.79;54.80;94912.22;5129683;27;20469;-86
2024/03/11 08:17:47;;;;;;;18.48;10.02;;;;;;;12.84;54.28;94909.63;5129125;27;20027;-86
2024/03/11 08:20:16;;;;;;;16.92;9.80;;;;;;;12.83;54.10;94915.63;5111238;27;20118;-85
2024/03/11 08:22:45;;;;;;;20.55;9.60;;;;;;;12.78;54.20;94894.91;5129873;27;20023;-84
2024/03/11 08:25:11;;;;;;;16.85;10.13;;;;;;;12.89;54.15;94908.28;5129624;27;20079;-85
2024/03/11 08:27:39;;;;;;;19.20;10.82;;;;;;;12.89;54.19;94897.25;5111647;27;20026;-86
2024/03/11 08:30:07;;;;;;;14.70;10.20;;;;;;;12.92;53.82;94908.16;5129427;27;20027;-84
2024/03/11 08:32:33;;;;;;;13.15;9.55;;;;;;;13.01;53.82;94913.69;5094019;27;20031;-86
2024/03/11 08:34:59;;;;;;;15.93;9.65;;;;;;;13.05;53.94;94907.28;5126382;27;20122;-86
2024/03/11 08:37:24;;;;;;;15.80;10.02;;;;;;;13.17;53.20;94900.91;5136823;27;20110;-84
2024/03/11 08:39:51;;;;;;;17.25;9.20;;;;;;;13.24;53.15;94901.41;5129367;27;20477;-85
2024/03/11 08:42:18;;;;;;;15.60;10.18;;;;;;;13.17;52.68;94889.84;5128653;27;20107;-86
2024/03/11 08:44:44;;;;;;;17.45;10.45;;;;;;;13.16;52.94;94910.41;5129554;27;20019;-83
2024/03/11 08:47:11;;;;;;;16.55;9.70;;;;;;;13.29;52.90;94911.84;5128498;27;20024;-87
2024/03/11 08:49:40;;;;;;;15.82;10.20;;;;;;;13.31;52.92;94900.38;5129784;27;20038;-84
2024/03/11 08:52:08;;;;;;;15.90;10.43;;;;;;;13.38;52.82;94910.38;5128951;27;20034;-84
2024/03/11 08:54:35;;;;;;;19.73;11.38;;;;;;;13.63;51.93;94912.88;5110681;27;20075;-84
2024/03/11 08:57:03;;;;;;;16.15;11.13;;;;;;;13.65;51.67;94912.41;5129259;27;20019;-84
2024/03/11 08:59:30;;;;;;;19.52;11.55;;;;;;;13.66;51.67;94911.97;5128254;27;20058;-85
2024/03/11 09:01:57;;;;;;;15.45;10.30;;;;;;;13.69;51.65;94907.50;5110569;27;20062;-85
2024/03/11 09:04:26;;;;;;;15.48;10.75;;;;;;;13.79;51.53;94909.84;5128346;27;20031;-86
2024/03/11 09:06:54;;;;;;;14.57;10.23;;;;;;;13.81;51.10;94899.09;5128715;27;20023;-84
2024/03/11 09:09:24;;;;;;;13.80;9.77;;;;;;;13.89;51.06;94896.81;5109821;27;20023;-83
2024/03/11 09:11:56;;;;;;;16.60;9.48;;;;;;;14.09;50.70;94907.41;5110228;27;20481;-86
2024/03/11 09:14:31;;;;;;;12.98;8.88;;;;;;;14.26;50.23;94907.84;5128851;27;20359;-85
2024/03/11 09:17:00;;;;;;;17.75;9.88;;;;;;;14.54;49.84;94898.34;5110207;27;20061;-85
2024/03/11 09:19:27;;;;;;;17.42;10.48;;;;;;;14.88;49.49;94897.19;5109955;27;20508;-85
2024/03/11 09:21:53;;;;;;;14.15;9.32;;;;;;;15.14;47.43;94903.09;5108949;27;20020;-85
2024/03/11 09:24:20;;;;;;;13.95;9.02;;;;;;;15.25;47.08;94905.34;5109324;27;20023;-85
2024/03/11 09:26:49;;;;;;;13.57;9.35;;;;;;;15.22;47.33;94897.22;5127779;27;20106;-84
2024/03/11 09:29:15;;;;;;;15.30;8.77;;;;;;;15.37;46.27;94879.47;5109486;27;20035;-84
2024/03/11 09:31:42;;;;;;;13.88;9.18;;;;;;;15.70;46.08;94881.44;5128163;27;20077;-83
2024/03/11 09:34:08;;;;;;;13.35;9.10;;;;;;;15.83;45.21;94873.69;5127675;27;20284;-84
2024/03/11 09:36:35;;;;;;;14.73;9.18;;;;;;;15.92;44.66;94872.84;5112824;27;20585;-83
2024/03/11 09:39:02;;;;;;;13.00;8.60;;;;;;;16.35;44.75;94871.41;5137246;27;20031;-85
2024/03/11 09:41:36;;;;;;;13.30;8.68;;;;;;;17.01;43.65;94853.63;5117321;27;20062;-82
2024/03/11 09:44:01;;;;;;;14.68;8.80;;;;;;;17.57;41.89;94854.47;5112284;27;20099;-85
2024/03/11 09:46:28;;;;;;;12.75;8.60;;;;;;;17.99;41.18;94851.22;5111825;27;20417;-83
2024/03/11 09:48:57;;;;;;;13.18;8.95;;;;;;;18.46;40.23;94845.66;5118799;27;20522;-84
2024/03/11 09:51:23;;;;;;;12.27;7.63;;;;;;;18.89;37.90;94837.50;5127405;27;20079;-86
2024/03/11 09:53:52;;;;;;;12.43;8.00;;;;;;;19.33;37.91;94839.84;5109742;27;20023;-85
2024/03/11 09:56:20;;;;;;;15.57;8.27;;;;;;;19.59;36.56;94828.63;5110623;27;20492;-84
2024/03/11 09:58:51;;;;;;;10.02;7.05;;;;;;;20.00;35.59;94833.88;5109190;27;20110;-83
2024/03/11 10:01:17;;;;;;;12.30;7.78;;;;;;;20.29;35.30;94849.47;5127155;27;20034;-83
2024/03/11 10:03:42;;;;;;;10.15;7.47;;;;;;;20.39;35.12;94834.00;5108226;27;20015;-84
2024/03/11 10:06:07;;;;;;;13.05;7.90;;;;;;;20.94;34.47;94819.38;5109133;27;20424;-83
2024/03/11 10:08:35;;;;;;;10.82;7.63;;;;;;;21.65;33.25;94829.50;5126394;27;20054;-84
2024/03/11 10:11:28;;;;;;;12.05;8.23;;;;;;;22.18;31.78;94828.31;5126872;27;20111;-82
2024/03/11 10:13:56;;;;;;;11.27;7.47;;;;;;;22.44;31.63;94827.16;5109683;27;20034;-83
2024/03/11 10:16:26;;;;;;;13.07;9.20;;;;;;;22.88;31.35;94828.16;5126996;27;20023;-82
2024/03/11 10:19:14;;;;;;;12.93;8.57;;;;;;;23.18;30.76;94820.56;5108892;27;20023;-82
2024/03/11 10:21:40;;;;;;;11.88;8.02;;;;;;;23.28;30.54;94807.72;5109517;27;20134;-83
2024/03/11 10:24:08;;;;;;;14.82;8.35;;;;;;;23.23;30.27;94799.38;5127448;27;20083;-84
2024/03/11 10:26:40;;;;;;;11.70;7.75;;;;;;;23.07;30.33;94789.06;5108448;27;20561;-82
2024/03/11 10:29:06;;;;;;;9.93;8.52;;;;;;;22.66;31.29;94793.41;5136992;27;20030;-81
2024/03/11 10:31:31;;;;;;;13.27;8.77;;;;;;;22.14;31.57;94793.47;5137547;27;20027;-81
2024/03/11 10:34:16;;;;;;;12.30;8.57;;;;;;;21.78;32.44;94787.72;5126544;27;20180;-82
2024/03/11 10:36:46;;;;;;;11.75;8.27;;;;;;;21.15;33.38;94763.97;5127251;27;20092;-82
2024/03/11 10:39:30;;;;;;;11.25;8.45;;;;;;;21.07;33.58;94759.44;5125883;27;20084;-81
2024/03/11 10:41:57;;;;;;;13.25;9.52;;;;;;;20.77;34.54;94748.78;5110033;27;20375;-81
2024/03/11 10:44:33;;;;;;;12.38;8.95;;;;;;;20.78;34.36;94758.69;5107927;27;20034;-83
2024/03/11 10:47:14;;;;;;;17.90;9.55;;;;;;;20.52;34.74;94758.16;5126194;27;20023;-81
2024/03/11 10:49:43;;;;;;;13.55;8.32;;;;;;;20.58;34.32;94773.66;5108785;27;20019;-84
2024/03/11 10:52:14;;;;;;;14.48;8.73;;;;;;;20.41;35.03;94751.28;5090284;27;20471;-81
2024/03/11 10:54:39;;;;;;;12.43;8.68;;;;;;;20.11;35.61;94742.59;5107689;27;20034;-82
2024/03/11 10:57:27;;;;;;;12.57;8.77;;;;;;;19.68;36.54;94730.84;5107669;27;20019;-81
2024/03/11 10:59:53;;;;;;;17.38;9.85;;;;;;;19.50;36.89;94720.09;5107084;27;20164;-82
2024/03/11 11:02:24;;;;;;;16.60;9.85;;;;;;;19.28;37.16;94699.22;5115039;27;20023;-82
2024/03/11 11:04:52;;;;;;;13.30;8.85;;;;;;;18.99;37.97;94705.16;5126146;27;20016;-83
2024/03/11 11:07:30;;;;;;;14.40;9.57;;;;;;;18.78;37.73;94716.41;5107704;27;20110;-82
2024/03/11 11:10:00;;;;;;;13.30;9.25;;;;;;;18.11;38.88;94713.03;5108195;27;20046;-84
2024/03/11 11:12:29;;;;;;;13.68;8.48;;;;;;;18.19;39.24;94705.78;5125274;27;20368;-81
2024/03/11 11:15:02;;;;;;;16.45;10.27;;;;;;;18.30;39.49;94697.53;5090893;27;20051;-81
2024/03/11 11:17:28;;;;;;;12.15;8.95;;;;;;;18.46;39.28;94689.81;5125260;27;20135;-84
2024/03/11 11:19:56;;;;;;;13.13;8.70;;;;;;;18.38;38.98;94695.06;5126438;27;20088;-84